sensor_id;sensor_type;location;lat;lon;timestamp;P1;durP1;ratioP1;P2;durP2;ratioP2
74855;SDS011;63407;53.018;8.690;2022-09-29T04:02:56;0.90;;;0.90;;
74855;SDS011;63407;53.018;8.690;2022-09-29T04:05:21;0.77;;;0.77;;
74855;SDS011;63407;53.018;8.690;2022-09-29T04:07:47;0.80;;;0.80;;
74855;SDS011;63407;53.018;8.690;2022-09-29T04:10:13;1.00;;;1.00;;
74855;SDS011;63407;53.018;8.690;2022-09-29T04:12:39;1.63;;;0.70;;
74855;SDS011;63407;53.018;8.690;2022-09-29T04:15:04;0.60;;;0.60;;
74855;SDS011;63407;53.018;8.690;2022-09-29T04:17:31;1.17;;;0.77;;
74855;SDS011;63407;53.018;8.690;2022-09-29T04:19:56;0.75;;;0.75;;
74855;SDS011;63407;53.018;8.690;2022-09-29T04:22:22;0.70;;;0.70;;
74855;SDS011;63407;53.018;8.690;2022-09-29T04:24:47;0.60;;;0.60;;
74855;SDS011;63407;53.018;8.690;2022-09-29T04:27:13;1.00;;;0.80;;
74855;SDS011;63407;53.018;8.690;2022-09-29T04:29:39;0.70;;;0.60;;
74855;SDS011;63407;53.018;8.690;2022-09-29T04:32:05;0.90;;;0.90;;
74855;SDS011;63407;53.018;8.690;2022-09-29T04:34:31;0.65;;;0.65;;
74855;SDS011;63407;53.018;8.690;2022-09-29T04:36:57;0.77;;;0.77;;
74855;SDS011;63407;53.018;8.690;2022-09-29T04:39:23;0.55;;;0.55;;
74855;SDS011;63407;53.018;8.690;2022-09-29T04:41:48;0.60;;;0.60;;
74855;SDS011;63407;53.018;8.690;2022-09-29T04:44:14;0.85;;;0.65;;
74855;SDS011;63407;53.018;8.690;2022-09-29T04:46:39;1.10;;;1.02;;
74855;SDS011;63407;53.018;8.690;2022-09-29T04:49:05;0.70;;;0.63;;
74855;SDS011;63407;53.018;8.690;2022-09-29T04:51:31;0.65;;;0.65;;
74855;SDS011;63407;53.018;8.690;2022-09-29T04:53:56;1.05;;;0.60;;
74855;SDS011;63407;53.018;8.690;2022-09-29T04:56:23;1.05;;;0.80;;
74855;SDS011;63407;53.018;8.690;2022-09-29T04:58:49;0.60;;;0.60;;
74855;SDS011;63407;53.018;8.690;2022-09-29T05:01:14;0.70;;;0.70;;
74855;SDS011;63407;53.018;8.690;2022-09-29T05:03:40;0.80;;;0.80;;
74855;SDS011;63407;53.018;8.690;2022-09-29T05:06:07;0.70;;;0.60;;
74855;SDS011;63407;53.018;8.690;2022-09-29T05:08:34;0.73;;;0.73;;
74855;SDS011;63407;53.018;8.690;2022-09-29T05:11:06;0.77;;;0.77;;
74855;SDS011;63407;53.018;8.690;2022-09-29T05:13:33;0.90;;;0.90;;
74855;SDS011;63407;53.018;8.690;2022-09-29T05:16:00;1.00;;;0.80;;
74855;SDS011;63407;53.018;8.690;2022-09-29T05:18:27;1.30;;;0.90;;
74855;SDS011;63407;53.018;8.690;2022-09-29T05:20:52;0.70;;;0.70;;
74855;SDS011;63407;53.018;8.690;2022-09-29T05:23:18;1.13;;;1.00;;
74855;SDS011;63407;53.018;8.690;2022-09-29T05:25:44;0.98;;;0.82;;
74855;SDS011;63407;53.018;8.690;2022-09-29T05:28:10;1.00;;;0.90;;
74855;SDS011;63407;53.018;8.690;2022-09-29T05:30:37;0.80;;;0.75;;
74855;SDS011;63407;53.018;8.690;2022-09-29T05:33:03;0.90;;;0.90;;
74855;SDS011;63407;53.018;8.690;2022-09-29T05:35:29;0.90;;;0.80;;
74855;SDS011;63407;53.018;8.690;2022-09-29T05:37:55;0.80;;;0.80;;
74855;SDS011;63407;53.018;8.690;2022-09-29T05:40:20;0.90;;;0.90;;
74855;SDS011;63407;53.018;8.690;2022-09-29T05:42:48;1.10;;;1.00;;
74855;SDS011;63407;53.018;8.690;2022-09-29T05:45:14;1.60;;;1.10;;
74855;SDS011;63407;53.018;8.690;2022-09-29T05:47:40;1.23;;;1.13;;
74855;SDS011;63407;53.018;8.690;2022-09-29T05:50:07;0.98;;;0.98;;
74855;SDS011;63407;53.018;8.690;2022-09-29T05:52:35;1.20;;;1.10;;
74855;SDS011;63407;53.018;8.690;2022-09-29T05:55:01;1.10;;;1.00;;
74855;SDS011;63407;53.018;8.690;2022-09-29T05:57:27;0.70;;;0.70;;
74855;SDS011;63407;53.018;8.690;2022-09-29T05:59:52;1.08;;;1.05;;
74855;SDS011;63407;53.018;8.690;2022-09-29T06:02:18;1.52;;;1.00;;
74855;SDS011;63407;53.018;8.690;2022-09-29T06:04:43;1.00;;;1.00;;
74855;SDS011;63407;53.018;8.690;2022-09-29T06:07:09;1.20;;;1.10;;
74855;SDS011;63407;53.018;8.690;2022-09-29T06:09:34;0.80;;;0.80;;
74855;SDS011;63407;53.018;8.690;2022-09-29T06:12:00;1.23;;;0.95;;
74855;SDS011;63407;53.018;8.690;2022-09-29T06:14:27;1.00;;;0.90;;
74855;SDS011;63407;53.018;8.690;2022-09-29T06:16:52;0.90;;;0.90;;
74855;SDS011;63407;53.018;8.690;2022-09-29T06:19:18;1.17;;;1.10;;
74855;SDS011;63407;53.018;8.690;2022-09-29T06:21:44;1.10;;;1.00;;
74855;SDS011;63407;53.018;8.690;2022-09-29T06:24:09;1.48;;;0.95;;
74855;SDS011;63407;53.018;8.690;2022-09-29T06:26:35;1.00;;;0.90;;
74855;SDS011;63407;53.018;8.690;2022-09-29T06:29:02;0.88;;;0.88;;
74855;SDS011;63407;53.018;8.690;2022-09-29T06:31:29;1.58;;;1.00;;
74855;SDS011;63407;53.018;8.690;2022-09-29T06:33:55;0.70;;;0.70;;
74855;SDS011;63407;53.018;8.690;2022-09-29T06:36:23;1.05;;;0.95;;
74855;SDS011;63407;53.018;8.690;2022-09-29T06:39:09;1.15;;;0.88;;
74855;SDS011;63407;53.018;8.690;2022-09-29T06:41:37;0.80;;;0.80;;
74855;SDS011;63407;53.018;8.690;2022-09-29T06:44:03;0.80;;;0.80;;
74855;SDS011;63407;53.018;8.690;2022-09-29T06:46:29;0.80;;;0.80;;
74855;SDS011;63407;53.018;8.690;2022-09-29T06:48:55;0.70;;;0.70;;
74855;SDS011;63407;53.018;8.690;2022-09-29T06:51:21;1.17;;;1.08;;
74855;SDS011;63407;53.018;8.690;2022-09-29T06:53:48;1.20;;;1.10;;
74855;SDS011;63407;53.018;8.690;2022-09-29T06:56:14;1.20;;;0.85;;
74855;SDS011;63407;53.018;8.690;2022-09-29T06:58:39;1.10;;;1.10;;
74855;SDS011;63407;53.018;8.690;2022-09-29T07:01:05;1.20;;;1.10;;
74855;SDS011;63407;53.018;8.690;2022-09-29T07:03:30;1.00;;;1.00;;
74855;SDS011;63407;53.018;8.690;2022-09-29T07:05:56;1.05;;;1.00;;
74855;SDS011;63407;53.018;8.690;2022-09-29T07:08:25;0.80;;;0.80;;
74855;SDS011;63407;53.018;8.690;2022-09-29T07:10:53;1.05;;;0.95;;
74855;SDS011;63407;53.018;8.690;2022-09-29T07:13:20;2.38;;;1.10;;
74855;SDS011;63407;53.018;8.690;2022-09-29T07:15:46;7.32;;;6.65;;
74855;SDS011;63407;53.018;8.690;2022-09-29T07:18:12;8.95;;;8.05;;
74855;SDS011;63407;53.018;8.690;2022-09-29T07:20:38;12.05;;;10.95;;
74855;SDS011;63407;53.018;8.690;2022-09-29T07:23:05;10.43;;;9.43;;
74855;SDS011;63407;53.018;8.690;2022-09-29T07:25:33;11.63;;;9.20;;
74855;SDS011;63407;53.018;8.690;2022-09-29T07:27:59;12.05;;;9.90;;
74855;SDS011;63407;53.018;8.690;2022-09-29T07:30:25;10.90;;;9.90;;
74855;SDS011;63407;53.018;8.690;2022-09-29T07:32:54;12.60;;;11.40;;
74855;SDS011;63407;53.018;8.690;2022-09-29T07:35:20;12.13;;;11.00;;
74855;SDS011;63407;53.018;8.690;2022-09-29T07:37:50;12.35;;;11.18;;
74855;SDS011;63407;53.018;8.690;2022-09-29T07:40:16;12.20;;;11.02;;
74855;SDS011;63407;53.018;8.690;2022-09-29T07:42:42;12.35;;;11.15;;
74855;SDS011;63407;53.018;8.690;2022-09-29T07:45:07;10.63;;;9.52;;
74855;SDS011;63407;53.018;8.690;2022-09-29T07:47:33;11.60;;;10.50;;
74855;SDS011;63407;53.018;8.690;2022-09-29T07:49:58;12.00;;;10.90;;
74855;SDS011;63407;53.018;8.690;2022-09-29T07:52:24;14.23;;;12.10;;
74855;SDS011;63407;53.018;8.690;2022-09-29T07:54:49;14.00;;;12.70;;
74855;SDS011;63407;53.018;8.690;2022-09-29T07:57:15;14.40;;;12.98;;
74855;SDS011;63407;53.018;8.690;2022-09-29T07:59:40;11.88;;;10.45;;
74855;SDS011;63407;53.018;8.690;2022-09-29T08:02:06;10.55;;;9.30;;
74855;SDS011;63407;53.018;8.690;2022-09-29T08:04:32;8.80;;;7.90;;
74855;SDS011;63407;53.018;8.690;2022-09-29T08:06:57;7.88;;;7.18;;
74855;SDS011;63407;53.018;8.690;2022-09-29T08:09:23;7.65;;;6.95;;
74855;SDS011;63407;53.018;8.690;2022-09-29T08:11:49;7.72;;;6.93;;
74855;SDS011;63407;53.018;8.690;2022-09-29T08:14:14;6.85;;;6.15;;
74855;SDS011;63407;53.018;8.690;2022-09-29T08:16:40;7.28;;;5.65;;
74855;SDS011;63407;53.018;8.690;2022-09-29T08:19:05;6.00;;;4.95;;
74855;SDS011;63407;53.018;8.690;2022-09-29T08:21:31;5.88;;;5.22;;
74855;SDS011;63407;53.018;8.690;2022-09-29T08:24:04;5.82;;;4.78;;
74855;SDS011;63407;53.018;8.690;2022-09-29T08:26:32;5.72;;;4.53;;
74855;SDS011;63407;53.018;8.690;2022-09-29T08:29:01;3.80;;;3.50;;
74855;SDS011;63407;53.018;8.690;2022-09-29T08:31:27;4.22;;;3.40;;
74855;SDS011;63407;53.018;8.690;2022-09-29T08:33:54;3.67;;;3.38;;
74855;SDS011;63407;53.018;8.690;2022-09-29T08:36:22;3.70;;;3.35;;
74855;SDS011;63407;53.018;8.690;2022-09-29T08:38:48;3.35;;;3.05;;
74855;SDS011;63407;53.018;8.690;2022-09-29T08:44:21;3.15;;;2.63;;
74855;SDS011;63407;53.018;8.690;2022-09-29T08:46:51;2.65;;;2.42;;
74855;SDS011;63407;53.018;8.690;2022-09-29T08:49:26;4.28;;;2.50;;
74855;SDS011;63407;53.018;8.690;2022-09-29T08:51:58;2.40;;;2.20;;
74855;SDS011;63407;53.018;8.690;2022-09-29T08:54:57;2.40;;;2.20;;
74855;SDS011;63407;53.018;8.690;2022-09-29T08:57:27;2.58;;;2.30;;
74855;SDS011;63407;53.018;8.690;2022-09-29T08:59:58;2.50;;;2.30;;
74855;SDS011;63407;53.018;8.690;2022-09-29T09:05:02;3.67;;;1.85;;
74855;SDS011;63407;53.018;8.690;2022-09-29T09:27:20;2.67;;;2.10;;
74855;SDS011;63407;53.018;8.690;2022-09-29T09:29:49;1.70;;;1.60;;
74855;SDS011;63407;53.018;8.690;2022-09-29T09:32:26;2.08;;;1.88;;
74855;SDS011;63407;53.018;8.690;2022-09-29T09:34:56;1.73;;;1.60;;
74855;SDS011;63407;53.018;8.690;2022-09-29T09:37:43;1.90;;;1.70;;
74855;SDS011;63407;53.018;8.690;2022-09-29T09:40:12;2.10;;;1.50;;
74855;SDS011;63407;53.018;8.690;2022-09-29T09:42:41;2.90;;;1.63;;
74855;SDS011;63407;53.018;8.690;2022-09-29T09:45:11;1.52;;;1.42;;
74855;SDS011;63407;53.018;8.690;2022-09-29T09:47:41;1.73;;;1.30;;
74855;SDS011;63407;53.018;8.690;2022-09-29T09:50:14;2.00;;;1.40;;
74855;SDS011;63407;53.018;8.690;2022-09-29T09:53:04;1.85;;;1.60;;
74855;SDS011;63407;53.018;8.690;2022-09-29T09:55:36;1.75;;;1.40;;
74855;SDS011;63407;53.018;8.690;2022-09-29T10:01:04;1.30;;;1.00;;
74855;SDS011;63407;53.018;8.690;2022-09-29T10:03:32;2.10;;;1.50;;
74855;SDS011;63407;53.018;8.690;2022-09-29T10:05:58;1.67;;;1.17;;
74855;SDS011;63407;53.018;8.690;2022-09-29T10:08:34;1.25;;;1.15;;
74855;SDS011;63407;53.018;8.690;2022-09-29T10:13:57;1.75;;;1.10;;
74855;SDS011;63407;53.018;8.690;2022-09-29T10:16:33;1.33;;;1.17;;
74855;SDS011;63407;53.018;8.690;2022-09-29T10:19:05;0.82;;;0.82;;
74855;SDS011;63407;53.018;8.690;2022-09-29T10:23:56;1.45;;;1.35;;
74855;SDS011;63407;53.018;8.690;2022-09-29T10:29:35;1.27;;;1.00;;
74855;SDS011;63407;53.018;8.690;2022-09-29T10:34:51;1.83;;;1.38;;
74855;SDS011;63407;53.018;8.690;2022-09-29T10:42:35;2.20;;;1.20;;
74855;SDS011;63407;53.018;8.690;2022-09-29T10:47:31;0.95;;;0.90;;
74855;SDS011;63407;53.018;8.690;2022-09-29T10:50:15;1.20;;;1.10;;
74855;SDS011;63407;53.018;8.690;2022-09-29T10:52:49;1.20;;;1.10;;
74855;SDS011;63407;53.018;8.690;2022-09-29T10:55:31;1.40;;;0.93;;
74855;SDS011;63407;53.018;8.690;2022-09-29T10:57:58;2.35;;;1.30;;
74855;SDS011;63407;53.018;8.690;2022-09-29T11:06:05;1.13;;;1.00;;
74855;SDS011;63407;53.018;8.690;2022-09-29T11:11:27;0.80;;;0.80;;
74855;SDS011;63407;53.018;8.690;2022-09-29T11:13:53;1.10;;;1.00;;
74855;SDS011;63407;53.018;8.690;2022-09-29T11:19:06;1.08;;;0.80;;
74855;SDS011;63407;53.018;8.690;2022-09-29T11:24:06;1.10;;;1.00;;
74855;SDS011;63407;53.018;8.690;2022-09-29T11:30:00;1.60;;;1.10;;
74855;SDS011;63407;53.018;8.690;2022-09-29T11:35:31;1.25;;;1.15;;
74855;SDS011;63407;53.018;8.690;2022-09-29T11:43:21;1.02;;;0.95;;
74855;SDS011;63407;53.018;8.690;2022-09-29T11:45:59;1.15;;;0.95;;
74855;SDS011;63407;53.018;8.690;2022-09-29T11:48:47;2.97;;;1.08;;
74855;SDS011;63407;53.018;8.690;2022-09-29T11:57:15;1.02;;;1.00;;
74855;SDS011;63407;53.018;8.690;2022-09-29T11:59:55;1.38;;;0.82;;
74855;SDS011;63407;53.018;8.690;2022-09-29T12:05:17;1.30;;;1.05;;
74855;SDS011;63407;53.018;8.690;2022-09-29T12:16:19;1.20;;;0.90;;
74855;SDS011;63407;53.018;8.690;2022-09-29T12:21:31;2.03;;;0.80;;
74855;SDS011;63407;53.018;8.690;2022-09-29T12:24:02;1.10;;;0.98;;
74855;SDS011;63407;53.018;8.690;2022-09-29T12:26:31;1.17;;;0.80;;
74855;SDS011;63407;53.018;8.690;2022-09-29T12:31:27;1.00;;;0.90;;
74855;SDS011;63407;53.018;8.690;2022-09-29T12:33:59;0.90;;;0.70;;
74855;SDS011;63407;53.018;8.690;2022-09-29T12:44:56;0.95;;;0.90;;
74855;SDS011;63407;53.018;8.690;2022-09-29T12:50:04;0.90;;;0.90;;
74855;SDS011;63407;53.018;8.690;2022-09-29T12:52:44;1.55;;;1.20;;
74855;SDS011;63407;53.018;8.690;2022-09-29T12:55:18;1.23;;;0.95;;
74855;SDS011;63407;53.018;8.690;2022-09-29T12:58:18;0.73;;;0.73;;
74855;SDS011;63407;53.018;8.690;2022-09-29T13:01:02;1.20;;;1.10;;
74855;SDS011;63407;53.018;8.690;2022-09-29T13:12:38;0.85;;;0.85;;
74855;SDS011;63407;53.018;8.690;2022-09-29T13:18:00;0.60;;;0.60;;
74855;SDS011;63407;53.018;8.690;2022-09-29T13:25:47;0.80;;;0.80;;
74855;SDS011;63407;53.018;8.690;2022-09-29T13:28:40;0.70;;;0.70;;
74855;SDS011;63407;53.018;8.690;2022-09-29T13:31:12;1.05;;;0.95;;
74855;SDS011;63407;53.018;8.690;2022-09-29T13:33:45;1.38;;;0.82;;
74855;SDS011;63407;53.018;8.690;2022-09-29T13:36:27;0.80;;;0.80;;
74855;SDS011;63407;53.018;8.690;2022-09-29T13:39:00;1.20;;;1.10;;
74855;SDS011;63407;53.018;8.690;2022-09-29T13:54:37;1.35;;;0.82;;
74855;SDS011;63407;53.018;8.690;2022-09-29T14:02:19;1.02;;;0.85;;
74855;SDS011;63407;53.018;8.690;2022-09-29T14:04:51;0.80;;;0.80;;
74855;SDS011;63407;53.018;8.690;2022-09-29T14:08:07;1.00;;;0.80;;
74855;SDS011;63407;53.018;8.690;2022-09-29T14:13:07;1.52;;;0.80;;
74855;SDS011;63407;53.018;8.690;2022-09-29T14:15:42;0.73;;;0.73;;
74855;SDS011;63407;53.018;8.690;2022-09-29T14:35:16;1.35;;;0.90;;
74855;SDS011;63407;53.018;8.690;2022-09-29T14:37:47;0.77;;;0.77;;
74855;SDS011;63407;53.018;8.690;2022-09-29T14:40:21;0.95;;;0.63;;
74855;SDS011;63407;53.018;8.690;2022-09-29T14:43:03;0.70;;;0.70;;
74855;SDS011;63407;53.018;8.690;2022-09-29T14:45:31;0.82;;;0.82;;
74855;SDS011;63407;53.018;8.690;2022-09-29T14:48:32;0.88;;;0.80;;
74855;SDS011;63407;53.018;8.690;2022-09-29T14:51:39;1.08;;;0.80;;
74855;SDS011;63407;53.018;8.690;2022-09-29T14:54:31;0.98;;;0.88;;
74855;SDS011;63407;53.018;8.690;2022-09-29T15:03:29;0.90;;;0.70;;
74855;SDS011;63407;53.018;8.690;2022-09-29T15:06:09;1.10;;;0.80;;
74855;SDS011;63407;53.018;8.690;2022-09-29T15:08:51;0.80;;;0.70;;
74855;SDS011;63407;53.018;8.690;2022-09-29T15:11:32;1.02;;;0.93;;
74855;SDS011;63407;53.018;8.690;2022-09-29T15:14:21;0.75;;;0.70;;
74855;SDS011;63407;53.018;8.690;2022-09-29T15:23:30;1.10;;;0.85;;
74855;SDS011;63407;53.018;8.690;2022-09-29T15:26:07;0.88;;;0.70;;
74855;SDS011;63407;53.018;8.690;2022-09-29T15:28:37;0.88;;;0.80;;
74855;SDS011;63407;53.018;8.690;2022-09-29T15:31:05;0.85;;;0.80;;
74855;SDS011;63407;53.018;8.690;2022-09-29T15:33:35;1.30;;;1.20;;
74855;SDS011;63407;53.018;8.690;2022-09-29T15:36:04;1.00;;;0.70;;
74855;SDS011;63407;53.018;8.690;2022-09-29T15:40:58;0.60;;;0.60;;
74855;SDS011;63407;53.018;8.690;2022-09-29T15:43:28;1.58;;;0.80;;
74855;SDS011;63407;53.018;8.690;2022-09-29T15:46:14;0.60;;;0.60;;
74855;SDS011;63407;53.018;8.690;2022-09-29T15:52:00;0.68;;;0.68;;
74855;SDS011;63407;53.018;8.690;2022-09-29T15:54:32;1.83;;;0.70;;
74855;SDS011;63407;53.018;8.690;2022-09-29T16:03:05;1.65;;;0.75;;
74855;SDS011;63407;53.018;8.690;2022-09-29T16:05:40;0.65;;;0.65;;
74855;SDS011;63407;53.018;8.690;2022-09-29T16:08:22;0.60;;;0.60;;
74855;SDS011;63407;53.018;8.690;2022-09-29T16:11:03;1.92;;;0.50;;
74855;SDS011;63407;53.018;8.690;2022-09-29T16:13:37;0.82;;;0.80;;
74855;SDS011;63407;53.018;8.690;2022-09-29T16:16:05;3.33;;;1.00;;
74855;SDS011;63407;53.018;8.690;2022-09-29T16:21:10;1.00;;;0.90;;
74855;SDS011;63407;53.018;8.690;2022-09-29T16:26:16;2.28;;;1.10;;
74855;SDS011;63407;53.018;8.690;2022-09-29T16:31:38;1.35;;;1.05;;
74855;SDS011;63407;53.018;8.690;2022-09-29T16:36:46;2.13;;;1.30;;
74855;SDS011;63407;53.018;8.690;2022-09-29T16:39:14;2.38;;;1.50;;
74855;SDS011;63407;53.018;8.690;2022-09-29T16:41:41;2.55;;;1.30;;
74855;SDS011;63407;53.018;8.690;2022-09-29T16:44:13;4.10;;;1.52;;
74855;SDS011;63407;53.018;8.690;2022-09-29T16:46:43;3.33;;;1.98;;
74855;SDS011;63407;53.018;8.690;2022-09-29T16:49:20;3.00;;;1.80;;
74855;SDS011;63407;53.018;8.690;2022-09-29T16:51:50;3.28;;;1.90;;
74855;SDS011;63407;53.018;8.690;2022-09-29T16:54:22;5.10;;;1.83;;
74855;SDS011;63407;53.018;8.690;2022-09-29T16:59:48;4.15;;;2.15;;
74855;SDS011;63407;53.018;8.690;2022-09-29T17:02:16;4.43;;;2.10;;
74855;SDS011;63407;53.018;8.690;2022-09-29T17:04:42;5.03;;;2.30;;
74855;SDS011;63407;53.018;8.690;2022-09-29T17:07:14;3.15;;;2.00;;
74855;SDS011;63407;53.018;8.690;2022-09-29T17:09:48;5.55;;;2.72;;
74855;SDS011;63407;53.018;8.690;2022-09-29T17:12:16;5.85;;;2.58;;
74855;SDS011;63407;53.018;8.690;2022-09-29T17:14:42;4.65;;;2.40;;
74855;SDS011;63407;53.018;8.690;2022-09-29T17:17:15;4.35;;;2.80;;
74855;SDS011;63407;53.018;8.690;2022-09-29T17:19:42;4.93;;;2.85;;
74855;SDS011;63407;53.018;8.690;2022-09-29T17:22:18;4.63;;;2.55;;
74855;SDS011;63407;53.018;8.690;2022-09-29T17:24:49;4.63;;;2.90;;
74855;SDS011;63407;53.018;8.690;2022-09-29T17:27:14;5.53;;;3.42;;
74855;SDS011;63407;53.018;8.690;2022-09-29T17:29:58;3.90;;;3.10;;
74855;SDS011;63407;53.018;8.690;2022-09-29T17:32:24;4.72;;;3.08;;
74855;SDS011;63407;53.018;8.690;2022-09-29T17:34:50;12.98;;;7.82;;
74855;SDS011;63407;53.018;8.690;2022-09-29T17:37:15;34.15;;;17.15;;
74855;SDS011;63407;53.018;8.690;2022-09-29T17:39:43;24.77;;;13.20;;
74855;SDS011;63407;53.018;8.690;2022-09-29T17:42:09;24.13;;;13.13;;
74855;SDS011;63407;53.018;8.690;2022-09-29T17:44:35;22.38;;;12.75;;
74855;SDS011;63407;53.018;8.690;2022-09-29T17:47:04;26.30;;;12.77;;
74855;SDS011;63407;53.018;8.690;2022-09-29T17:49:31;25.23;;;12.60;;
74855;SDS011;63407;53.018;8.690;2022-09-29T17:51:59;24.88;;;11.95;;
74855;SDS011;63407;53.018;8.690;2022-09-29T17:54:25;24.42;;;11.88;;
74855;SDS011;63407;53.018;8.690;2022-09-29T17:56:51;21.45;;;11.27;;
74855;SDS011;63407;53.018;8.690;2022-09-29T17:59:16;20.00;;;11.95;;
74855;SDS011;63407;53.018;8.690;2022-09-29T18:01:42;20.95;;;11.07;;
74855;SDS011;63407;53.018;8.690;2022-09-29T18:04:07;18.85;;;10.60;;
74855;SDS011;63407;53.018;8.690;2022-09-29T18:06:34;20.08;;;10.65;;
74855;SDS011;63407;53.018;8.690;2022-09-29T18:09:02;22.17;;;11.43;;
74855;SDS011;63407;53.018;8.690;2022-09-29T18:11:37;16.60;;;10.35;;
74855;SDS011;63407;53.018;8.690;2022-09-29T18:14:03;18.67;;;10.60;;
74855;SDS011;63407;53.018;8.690;2022-09-29T18:16:28;18.45;;;10.50;;
74855;SDS011;63407;53.018;8.690;2022-09-29T18:18:54;21.10;;;11.05;;
74855;SDS011;63407;53.018;8.690;2022-09-29T18:21:21;18.70;;;9.93;;
74855;SDS011;63407;53.018;8.690;2022-09-29T18:23:46;19.25;;;9.20;;
74855;SDS011;63407;53.018;8.690;2022-09-29T18:26:12;20.63;;;9.75;;
74855;SDS011;63407;53.018;8.690;2022-09-29T18:28:39;17.95;;;8.90;;
74855;SDS011;63407;53.018;8.690;2022-09-29T18:31:06;18.27;;;9.07;;
74855;SDS011;63407;53.018;8.690;2022-09-29T18:33:47;24.88;;;12.57;;
74855;SDS011;63407;53.018;8.690;2022-09-29T18:36:12;16.90;;;9.32;;
74855;SDS011;63407;53.018;8.690;2022-09-29T18:38:38;20.00;;;10.18;;
74855;SDS011;63407;53.018;8.690;2022-09-29T18:41:04;20.05;;;10.05;;
74855;SDS011;63407;53.018;8.690;2022-09-29T18:43:31;17.45;;;9.65;;
74855;SDS011;63407;53.018;8.690;2022-09-29T18:45:56;18.75;;;9.55;;
74855;SDS011;63407;53.018;8.690;2022-09-29T18:48:23;17.55;;;9.43;;
74855;SDS011;63407;53.018;8.690;2022-09-29T18:50:49;16.25;;;9.15;;
74855;SDS011;63407;53.018;8.690;2022-09-29T18:53:17;17.98;;;8.93;;
74855;SDS011;63407;53.018;8.690;2022-09-29T18:55:45;15.40;;;8.50;;
74855;SDS011;63407;53.018;8.690;2022-09-29T18:58:17;49.13;;;24.80;;
74855;SDS011;63407;53.018;8.690;2022-09-29T19:00:46;74.68;;;39.88;;
74855;SDS011;63407;53.018;8.690;2022-09-29T19:03:17;62.40;;;32.88;;
74855;SDS011;63407;53.018;8.690;2022-09-29T19:50:48;8.45;;;4.05;;
74855;SDS011;63407;53.018;8.690;2022-09-29T19:53:39;6.72;;;3.80;;
74855;SDS011;63407;53.018;8.690;2022-09-29T19:56:09;8.45;;;4.10;;
74855;SDS011;63407;53.018;8.690;2022-09-29T19:58:36;8.10;;;4.05;;
74855;SDS011;63407;53.018;8.690;2022-09-29T20:01:04;6.63;;;3.35;;
74855;SDS011;63407;53.018;8.690;2022-09-29T20:03:30;8.77;;;3.60;;
74855;SDS011;63407;53.018;8.690;2022-09-29T20:05:57;8.20;;;3.80;;
74855;SDS011;63407;53.018;8.690;2022-09-29T20:08:24;8.30;;;4.05;;
74855;SDS011;63407;53.018;8.690;2022-09-29T20:10:49;5.07;;;3.40;;
74855;SDS011;63407;53.018;8.690;2022-09-29T20:13:15;6.85;;;3.50;;
74855;SDS011;63407;53.018;8.690;2022-09-29T20:15:41;6.93;;;3.83;;
74855;SDS011;63407;53.018;8.690;2022-09-29T20:18:12;6.90;;;3.40;;
74855;SDS011;63407;53.018;8.690;2022-09-29T20:20:38;5.47;;;2.90;;
74855;SDS011;63407;53.018;8.690;2022-09-29T20:23:06;4.97;;;2.78;;
74855;SDS011;63407;53.018;8.690;2022-09-29T20:25:32;6.18;;;3.50;;
74855;SDS011;63407;53.018;8.690;2022-09-29T20:27:58;6.22;;;3.60;;
74855;SDS011;63407;53.018;8.690;2022-09-29T20:30:23;6.90;;;3.67;;
74855;SDS011;63407;53.018;8.690;2022-09-29T20:32:50;7.53;;;2.95;;
74855;SDS011;63407;53.018;8.690;2022-09-29T20:35:16;6.45;;;3.33;;
74855;SDS011;63407;53.018;8.690;2022-09-29T20:37:41;4.82;;;2.95;;
74855;SDS011;63407;53.018;8.690;2022-09-29T20:40:07;5.10;;;3.08;;
74855;SDS011;63407;53.018;8.690;2022-09-29T20:42:34;5.70;;;3.00;;
74855;SDS011;63407;53.018;8.690;2022-09-29T20:45:01;4.50;;;2.85;;
74855;SDS011;63407;53.018;8.690;2022-09-29T20:47:27;6.05;;;3.20;;
74855;SDS011;63407;53.018;8.690;2022-09-29T20:49:53;7.53;;;3.17;;
74855;SDS011;63407;53.018;8.690;2022-09-29T20:52:21;4.97;;;2.95;;
74855;SDS011;63407;53.018;8.690;2022-09-29T20:54:47;4.68;;;2.53;;
74855;SDS011;63407;53.018;8.690;2022-09-29T20:57:13;6.20;;;2.90;;
74855;SDS011;63407;53.018;8.690;2022-09-29T20:59:40;5.07;;;2.70;;
